createdAt,value
2018-09-29T00:01:29.958Z,100024.20
2018-09-29T00:03:57.150Z,100025.74
2018-09-29T00:06:24.463Z,100020.27
2018-09-29T00:08:51.653Z,100029.80
2018-09-29T00:11:18.843Z,100027.95
2018-09-29T00:13:45.974Z,100032.41
2018-09-29T00:16:13.181Z,100026.52
2018-09-29T00:18:40.334Z,100030.12
2018-09-29T00:21:07.569Z,100033.06
2018-09-29T00:23:34.817Z,100030.48
2018-09-29T00:26:01.990Z,100033.14
2018-09-29T00:28:29.175Z,100033.28
2018-09-29T00:30:56.362Z,100031.91
2018-09-29T00:33:23.521Z,100036.87
2018-09-29T00:35:50.713Z,100039.53
2018-09-29T00:38:17.944Z,100041.74
2018-09-29T00:40:45.149Z,100027.72
2018-09-29T00:43:12.344Z,100027.86
2018-09-29T00:45:39.500Z,100024.36
2018-09-29T00:48:06.715Z,100022.48
2018-09-29T00:50:33.914Z,100023.77
2018-09-29T00:53:01.101Z,100020.56
2018-09-29T00:55:28.318Z,100025.34
2018-09-29T00:57:55.523Z,100024.06
2018-09-29T01:00:22.669Z,100024.37
2018-09-29T01:02:49.877Z,100019.84
2018-09-29T01:05:17.025Z,100025.69
2018-09-29T01:07:44.220Z,100019.58
2018-09-29T01:10:11.368Z,100019.97
2018-09-29T01:12:38.586Z,100011.33
2018-09-29T01:15:05.743Z,100004.79
2018-09-29T01:17:32.965Z,100006.11
2018-09-29T01:20:00.180Z,100011.19
2018-09-29T01:22:27.470Z,100007.13
2018-09-29T01:24:54.733Z,100009.22
2018-09-29T01:27:21.911Z,100001.27
2018-09-29T01:29:49.129Z,100004.08
2018-09-29T01:32:16.358Z,100002.20
2018-09-29T01:34:43.536Z,99996.75
2018-09-29T01:37:10.692Z,99992.73
2018-09-29T01:39:38.048Z,99993.55
2018-09-29T01:42:05.290Z,99984.16
2018-09-29T01:44:32.501Z,99989.37
2018-09-29T01:46:59.670Z,99987.40
2018-09-29T01:49:26.854Z,99985.67
2018-09-29T01:51:54.180Z,99980.30
2018-09-29T01:54:21.334Z,99985.87
2018-09-29T01:56:48.580Z,99986.34
2018-09-29T01:59:15.804Z,99994.67
2018-09-29T02:01:42.962Z,99994.73
2018-09-29T02:04:10.134Z,99993.70
2018-09-29T02:06:38.881Z,99994.47
2018-09-29T02:09:06.490Z,99999.38
2018-09-29T02:11:33.710Z,99846.36
2018-09-29T02:14:00.949Z,99994.37
2018-09-29T02:16:28.137Z,99994.58
2018-09-29T02:18:55.511Z,99986.30
2018-09-29T02:21:22.748Z,99993.06
2018-09-29T02:23:49.954Z,99991.83
2018-09-29T02:26:17.147Z,99992.66
2018-09-29T02:28:44.378Z,99989.70
2018-09-29T02:31:11.560Z,99991.22
2018-09-29T02:33:38.781Z,99990.02
2018-09-29T02:36:05.953Z,99990.55
2018-09-29T02:38:33.105Z,99996.08
2018-09-29T02:41:00.449Z,99991.93
2018-09-29T02:43:27.639Z,99995.27
2018-09-29T02:45:54.829Z,99989.09
2018-09-29T02:48:22.069Z,99988.94
2018-09-29T02:50:49.255Z,99986.30
2018-09-29T02:53:16.564Z,99990.55
2018-09-29T02:55:43.765Z,99994.73
2018-09-29T02:58:10.991Z,99991.52
2018-09-29T03:00:38.111Z,99988.38
2018-09-29T03:03:05.380Z,99987.48
2018-09-29T03:05:32.495Z,99992.41
2018-09-29T03:07:59.622Z,99995.05
2018-09-29T03:10:26.857Z,99991.52
2018-09-29T03:12:54.642Z,99994.86
2018-09-29T03:15:21.818Z,99988.58
2018-09-29T03:17:48.978Z,99989.97
2018-09-29T03:20:16.111Z,99986.25
2018-09-29T03:22:43.326Z,99989.02
2018-09-29T03:25:10.578Z,99989.97
2018-09-29T03:27:37.745Z,99985.32
2018-09-29T03:30:05.243Z,99991.47
2018-09-29T03:32:32.497Z,99986.94
2018-09-29T03:34:59.657Z,99990.96
2018-09-29T03:37:26.842Z,99993.84
2018-09-29T03:39:53.986Z,99992.97
2018-09-29T03:42:21.128Z,99994.47
2018-09-29T03:44:48.368Z,99997.34
2018-09-29T03:47:15.516Z,100003.31
2018-09-29T03:49:42.695Z,100001.25
2018-09-29T03:52:09.870Z,99999.81
2018-09-29T03:54:37.067Z,99998.49
2018-09-29T03:57:04.245Z,99995.10
2018-09-29T03:59:31.514Z,99993.66
2018-09-29T04:01:58.702Z,99992.19
2018-09-29T04:04:25.987Z,100002.92
2018-09-29T04:06:53.213Z,99998.60
2018-09-29T04:09:20.406Z,100004.18
2018-09-29T04:11:47.632Z,99999.92
2018-09-29T04:14:14.869Z,99998.97
2018-09-29T04:16:42.072Z,100000.31
2018-09-29T04:19:09.328Z,100003.88
2018-09-29T04:21:43.019Z,100005.25
2018-09-29T04:24:10.254Z,99999.46
2018-09-29T04:26:37.500Z,99999.80
2018-09-29T04:29:04.804Z,99995.57
2018-09-29T04:31:32.006Z,99995.05
2018-09-29T04:33:59.154Z,99994.70
2018-09-29T04:36:26.305Z,100003.36
2018-09-29T04:38:53.553Z,99996.36
2018-09-29T04:41:20.732Z,99998.12
2018-09-29T04:43:47.953Z,99997.88
2018-09-29T04:46:15.191Z,99994.30
2018-09-29T04:48:43.161Z,99991.78
2018-09-29T04:51:10.392Z,99987.77
2018-09-29T04:53:37.562Z,99998.12
2018-09-29T04:56:04.721Z,99998.94
2018-09-29T04:58:31.873Z,99998.77
2018-09-29T05:00:59.095Z,99995.27
2018-09-29T05:03:26.286Z,99999.44
2018-09-29T05:05:53.459Z,99997.62
2018-09-29T05:08:20.601Z,100000.70
2018-09-29T05:10:47.751Z,100002.59
2018-09-29T05:13:14.933Z,99993.61
2018-09-29T05:15:42.185Z,100000.81
2018-09-29T05:18:09.360Z,99991.83
2018-09-29T05:20:36.569Z,99988.14
2018-09-29T05:23:03.704Z,99994.90
2018-09-29T05:25:30.836Z,99996.38
2018-09-29T05:27:58.224Z,99994.22
2018-09-29T05:30:25.432Z,100000.98
2018-09-29T05:32:52.632Z,99999.73
2018-09-29T05:35:19.854Z,100005.00
2018-09-29T05:37:47.022Z,100003.58
2018-09-29T05:40:14.193Z,100003.33
2018-09-29T05:42:41.397Z,100007.95
2018-09-29T05:45:08.592Z,100005.48
2018-09-29T05:47:35.767Z,100006.06
2018-09-29T05:50:02.937Z,99998.88
2018-09-29T05:52:30.088Z,100001.70
2018-09-29T05:54:57.267Z,99997.25
2018-09-29T05:57:24.416Z,99997.62
2018-09-29T05:59:51.633Z,100002.36
2018-09-29T06:02:18.949Z,100006.41
2018-09-29T06:04:46.144Z,100004.18
2018-09-29T06:07:13.331Z,100013.70
2018-09-29T06:09:40.514Z,100017.34
2018-09-29T06:12:07.653Z,100016.84
2018-09-29T06:14:34.910Z,100029.78
2018-09-29T06:17:02.060Z,100037.19
2018-09-29T06:19:29.281Z,100039.57
2018-09-29T06:21:56.402Z,100045.80
2018-09-29T06:24:23.572Z,100040.44
2018-09-29T06:26:50.811Z,100046.63
2018-09-29T06:29:18.001Z,100042.38
2018-09-29T06:31:45.171Z,100047.06
2018-09-29T06:34:12.434Z,100040.75
2018-09-29T06:36:39.572Z,100042.08
2018-09-29T06:39:07.802Z,100051.00
2018-09-29T06:41:35.051Z,100051.41
2018-09-29T06:44:02.545Z,100052.22
2018-09-29T06:46:29.842Z,100054.19
2018-09-29T06:48:57.057Z,100043.30
2018-09-29T06:51:24.277Z,100047.52
2018-09-29T06:53:51.498Z,100052.30
2018-09-29T06:56:18.674Z,100052.40
2018-09-29T06:58:45.794Z,100061.36
2018-09-29T07:01:13.010Z,100057.06
2018-09-29T07:03:40.293Z,100064.80
2018-09-29T07:06:07.537Z,100060.58
2018-09-29T07:08:34.791Z,100058.44
2018-09-29T07:11:02.012Z,100060.05
2018-09-29T07:13:29.137Z,100059.41
2018-09-29T07:15:56.544Z,100058.54
2018-09-29T07:18:23.695Z,100063.70
2018-09-29T07:20:50.957Z,100064.56
2018-09-29T07:23:18.245Z,100064.81
2018-09-29T07:25:45.361Z,100064.13
2018-09-29T07:28:12.644Z,100064.64
2018-09-29T07:30:40.701Z,100064.19
2018-09-29T07:33:08.248Z,100064.76
2018-09-29T07:35:35.389Z,100058.25
2018-09-29T07:38:02.636Z,100063.20
2018-09-29T07:40:29.862Z,100062.84
2018-09-29T07:42:57.049Z,100057.36
2018-09-29T07:45:24.336Z,100061.33
2018-09-29T07:47:51.501Z,100064.64
2018-09-29T07:50:18.689Z,100062.33
2018-09-29T07:52:45.919Z,100063.00
2018-09-29T07:55:13.580Z,99994.41
2018-09-29T07:57:40.797Z,100048.67
2018-09-29T08:00:08.075Z,100055.28
2018-09-29T08:02:35.316Z,100057.73
2018-09-29T08:05:02.575Z,100044.35
2018-09-29T08:07:29.781Z,100049.71
2018-09-29T08:09:57.221Z,100049.12
2018-09-29T08:12:24.652Z,100050.94
2018-09-29T08:14:51.815Z,100032.17
2018-09-29T08:17:19.031Z,100045.66
2018-09-29T08:19:46.333Z,100039.58
2018-09-29T08:22:13.635Z,100039.20
2018-09-29T08:24:41.093Z,100036.70
2018-09-29T08:27:08.250Z,100033.89
2018-09-29T08:29:35.581Z,100033.58
2018-09-29T08:32:02.792Z,100032.66
2018-09-29T08:34:30.057Z,100038.38
2018-09-29T08:36:57.243Z,100033.30
2018-09-29T08:39:24.544Z,100032.12
2018-09-29T08:41:52.375Z,100023.85
2018-09-29T08:44:19.670Z,100021.66
2018-09-29T08:49:14.998Z,100024.23
2018-09-29T08:51:42.256Z,100021.78
2018-09-29T08:54:09.462Z,100021.42
2018-09-29T08:56:36.800Z,100020.51
2018-09-29T08:59:04.459Z,100023.30
2018-09-29T09:01:31.766Z,100021.42
2018-09-29T09:03:59.143Z,100020.70
2018-09-29T09:06:26.357Z,100016.83
2018-09-29T09:08:53.539Z,100003.89
2018-09-29T09:11:21.451Z,99998.34
2018-09-29T09:13:48.626Z,100002.66
2018-09-29T09:16:16.034Z,99998.05
2018-09-29T09:18:43.621Z,99994.95
2018-09-29T09:21:10.822Z,100000.84
2018-09-29T09:23:37.992Z,99996.18
2018-09-29T09:26:05.246Z,99990.81
2018-09-29T09:28:32.536Z,99998.23
2018-09-29T09:30:59.816Z,99993.42
2018-09-29T09:33:27.121Z,99991.55
2018-09-29T09:35:54.405Z,99992.18
2018-09-29T09:38:21.575Z,99985.23
2018-09-29T09:40:48.914Z,99989.30
2018-09-29T09:43:16.169Z,99985.25
2018-09-29T09:45:43.345Z,99981.27
2018-09-29T09:48:10.653Z,99983.52
2018-09-29T09:50:37.899Z,99977.41
2018-09-29T09:53:05.476Z,99935.64
2018-09-29T09:55:32.747Z,99971.34
2018-09-29T09:58:00.631Z,99967.95
2018-09-29T10:00:34.479Z,99972.52
2018-09-29T10:03:07.616Z,99972.22
2018-09-29T10:05:34.852Z,99972.52
2018-09-29T10:08:02.239Z,99972.77
2018-09-29T10:10:29.657Z,99970.93
2018-09-29T10:12:57.504Z,99931.55
2018-09-29T10:15:24.738Z,99965.38
2018-09-29T10:17:52.078Z,99961.70
2018-09-29T10:20:19.253Z,99957.16
2018-09-29T10:22:46.502Z,99956.61
2018-09-29T10:25:13.746Z,99955.61
2018-09-29T10:27:41.036Z,99949.03
2018-09-29T10:30:08.397Z,99947.41
2018-09-29T10:32:35.661Z,99950.61
2018-09-29T10:35:02.932Z,99944.49
2018-09-29T10:37:30.227Z,99947.17
2018-09-29T10:39:59.931Z,99950.62
2018-09-29T10:42:27.177Z,99938.92
2018-09-29T10:44:54.433Z,99938.39
2018-09-29T10:47:21.640Z,99933.58
2018-09-29T10:49:48.858Z,99934.38
2018-09-29T10:52:16.282Z,99937.31
2018-09-29T10:54:44.106Z,99938.38
2018-09-29T10:57:11.310Z,99930.36
2018-09-29T10:59:38.510Z,99923.72
2018-09-29T11:02:05.834Z,99913.84
2018-09-29T11:04:33.322Z,99919.42
2018-09-29T11:07:00.579Z,99918.84
2018-09-29T11:09:27.876Z,99914.50
2018-09-29T11:11:55.327Z,99903.09
2018-09-29T11:14:22.916Z,99896.98
2018-09-29T11:16:50.332Z,99905.52
2018-09-29T11:19:17.678Z,99902.27
2018-09-29T11:21:45.452Z,99895.83
2018-09-29T11:24:13.002Z,99894.92
2018-09-29T11:26:40.354Z,99880.20
2018-09-29T11:29:07.682Z,99888.84
2018-09-29T11:31:34.962Z,99880.55
2018-09-29T11:34:02.116Z,99871.96
2018-09-29T11:36:29.678Z,99871.67
2018-09-29T11:38:56.930Z,99864.67
2018-09-29T11:41:24.146Z,99861.18
2018-09-29T11:43:51.529Z,99848.24
2018-09-29T11:46:18.707Z,99854.30
2018-09-29T11:48:45.823Z,99844.27
2018-09-29T11:51:13.027Z,99843.08
2018-09-29T11:53:40.186Z,99836.41
2018-09-29T11:56:07.499Z,99846.39
2018-09-29T11:58:34.711Z,99843.84
2018-09-29T12:01:01.983Z,99832.48
2018-09-29T12:03:29.206Z,99827.86
2018-09-29T12:05:56.530Z,99826.41
2018-09-29T12:08:23.727Z,99824.70
2018-09-29T12:10:51.310Z,99822.77
2018-09-29T12:13:18.569Z,99823.30
2018-09-29T12:15:45.705Z,99818.25
2018-09-29T12:18:12.954Z,99814.08
2018-09-29T12:20:40.159Z,99810.10
2018-09-29T12:23:08.565Z,99804.06
2018-09-29T12:25:35.738Z,99804.95
2018-09-29T12:28:02.835Z,99800.24
2018-09-29T12:30:30.062Z,99799.53
2018-09-29T12:32:57.285Z,99789.02
2018-09-29T12:35:24.606Z,99779.02
2018-09-29T12:37:51.799Z,99782.16
2018-09-29T12:40:19.044Z,99777.17
2018-09-29T12:42:46.735Z,99767.98
2018-09-29T12:45:15.784Z,99770.62
2018-09-29T12:47:43.043Z,99767.06
2018-09-29T12:50:10.237Z,99763.20
2018-09-29T12:52:37.329Z,99762.53
2018-09-29T12:55:04.489Z,99758.61
2018-09-29T12:57:31.850Z,99750.74
2018-09-29T12:59:59.044Z,99754.69
2018-09-29T13:02:26.211Z,99751.89
2018-09-29T13:04:53.437Z,99754.38
2018-09-29T13:07:20.649Z,99750.84
2018-09-29T13:09:47.843Z,99741.77
2018-09-29T13:12:15.106Z,99740.45
2018-09-29T13:14:42.352Z,99742.83
2018-09-29T13:17:09.620Z,99736.31
2018-09-29T13:19:36.830Z,99729.08
2018-09-29T13:22:04.031Z,99721.02
2018-09-29T13:24:31.327Z,99730.62
2018-09-29T13:26:58.724Z,99727.33
2018-09-29T13:29:26.040Z,99671.38
2018-09-29T13:31:54.208Z,99717.16
2018-09-29T13:34:21.527Z,99725.27
2018-09-29T13:36:48.856Z,99711.80
2018-09-29T13:39:16.239Z,99711.61
2018-09-29T13:41:43.406Z,99704.55
2018-09-29T13:44:10.573Z,99713.63
2018-09-29T13:46:37.982Z,99700.88
2018-09-29T13:49:05.282Z,99702.58
2018-09-29T13:51:32.961Z,99704.38
2018-09-29T13:54:01.019Z,99693.28
2018-09-29T13:56:28.197Z,99692.98
2018-09-29T13:58:55.418Z,99684.06
2018-09-29T14:01:22.603Z,99675.77
2018-09-29T14:03:49.774Z,99680.36
2018-09-29T14:06:17.098Z,99682.52
2018-09-29T14:08:44.408Z,99681.55
2018-09-29T14:11:12.252Z,99683.28
2018-09-29T14:13:39.487Z,99672.69
2018-09-29T14:16:06.844Z,99659.55
2018-09-29T14:18:34.489Z,99660.86
2018-09-29T14:21:02.215Z,99654.18
2018-09-29T14:23:29.613Z,99658.19
2018-09-29T14:25:57.917Z,99651.16
2018-09-29T14:28:25.099Z,99652.11
2018-09-29T14:30:53.114Z,99643.39
2018-09-29T14:33:20.589Z,99640.98
2018-09-29T14:35:47.765Z,99630.98
2018-09-29T14:38:15.165Z,99629.33
2018-09-29T14:40:42.396Z,99624.53
2018-09-29T14:43:09.826Z,99634.87
2018-09-29T14:45:37.139Z,99629.38
2018-09-29T14:48:04.529Z,99631.70
2018-09-29T14:50:31.836Z,99625.41
2018-09-29T14:53:00.127Z,99620.63
2018-09-29T14:55:27.591Z,99618.57
2018-09-29T14:57:55.036Z,99608.94
2018-09-29T15:00:22.292Z,99602.98
2018-09-29T15:02:50.257Z,99602.61
2018-09-29T15:05:17.428Z,99604.00
2018-09-29T15:07:44.642Z,99608.55
2018-09-29T15:10:12.096Z,99602.04
2018-09-29T15:12:39.266Z,99599.61
2018-09-29T15:15:06.614Z,99601.84
2018-09-29T15:17:33.950Z,99605.61
2018-09-29T15:20:01.310Z,99603.38
2018-09-29T15:22:28.510Z,99600.80
2018-09-29T15:24:55.880Z,99598.06
2018-09-29T15:27:23.071Z,99591.30
2018-09-29T15:29:50.265Z,99594.00
2018-09-29T15:32:17.793Z,99590.80
2018-09-29T15:34:45.022Z,99586.88
2018-09-29T15:37:12.254Z,99586.30
2018-09-29T15:39:40.138Z,99590.14
2018-09-29T15:44:43.365Z,99579.62
2018-09-29T15:47:10.583Z,99574.97
2018-09-29T15:49:37.772Z,99571.77
2018-09-29T15:52:04.931Z,99570.61
2018-09-29T15:54:32.340Z,99567.94
2018-09-29T15:56:59.675Z,99569.97
2018-09-29T15:59:26.965Z,99563.40
2018-09-29T16:01:54.127Z,99564.05
2018-09-29T16:04:21.750Z,99564.51
2018-09-29T16:06:49.281Z,99562.45
2018-09-29T16:09:16.515Z,99560.80
2018-09-29T16:11:43.761Z,99566.77
2018-09-29T16:14:11.017Z,99563.05
2018-09-29T16:16:38.366Z,99562.71
2018-09-29T16:19:05.645Z,99557.97
2018-09-29T16:21:33.315Z,99559.98
2018-09-29T16:24:00.635Z,99560.38
2018-09-29T16:26:27.858Z,99559.80
2018-09-29T16:28:55.102Z,99557.35
2018-09-29T16:31:22.310Z,99554.88
2018-09-29T16:33:49.446Z,99556.59
2018-09-29T16:36:16.737Z,99553.13
2018-09-29T16:38:43.950Z,99550.83
2018-09-29T16:41:11.941Z,99551.96
2018-09-29T16:43:39.406Z,99558.23
2018-09-29T16:46:06.981Z,99561.94
2018-09-29T16:48:34.499Z,99557.50
2018-09-29T16:51:01.663Z,99560.81
2018-09-29T16:53:28.838Z,99564.79
2018-09-29T16:55:56.120Z,99560.88
2018-09-29T16:58:23.301Z,99558.57
2018-09-29T17:00:50.511Z,99561.46
2018-09-29T17:03:17.677Z,99554.78
2018-09-29T17:05:44.910Z,99561.13
2018-09-29T17:08:12.150Z,99563.53
2018-09-29T17:10:39.321Z,99564.64
2018-09-29T17:13:06.499Z,99565.02
2018-09-29T17:15:33.702Z,99557.91
2018-09-29T17:18:01.172Z,99563.36
2018-09-29T17:20:28.727Z,99565.55
2018-09-29T17:22:56.008Z,99565.09
2018-09-29T17:25:23.320Z,99559.25
2018-09-29T17:27:50.523Z,99566.30
2018-09-29T17:30:17.764Z,99562.86
2018-09-29T17:32:45.030Z,99570.06
2018-09-29T17:35:15.147Z,99566.26
2018-09-29T17:37:42.337Z,99568.12
2018-09-29T17:40:10.275Z,99575.31
2018-09-29T17:42:37.466Z,99577.27
2018-09-29T17:45:04.669Z,99569.09
2018-09-29T17:47:31.872Z,99578.77
2018-09-29T17:49:59.015Z,99581.23
2018-09-29T17:52:26.221Z,99575.70
2018-09-29T17:54:53.459Z,99576.31
2018-09-29T17:57:20.645Z,99578.44
2018-09-29T17:59:47.923Z,99579.78
2018-09-29T18:02:15.190Z,99576.63
2018-09-29T18:04:42.461Z,99578.47
2018-09-29T18:07:09.687Z,99574.50
2018-09-29T18:09:36.965Z,99581.80
2018-09-29T18:12:04.258Z,99577.34
2018-09-29T18:14:31.631Z,99578.19
2018-09-29T18:16:58.812Z,99587.45
2018-09-29T18:19:26.068Z,99580.28
2018-09-29T18:21:53.337Z,99579.62
2018-09-29T18:24:20.609Z,99567.52
2018-09-29T18:26:47.772Z,99561.52
2018-09-29T18:29:15.077Z,99563.95
2018-09-29T18:31:42.296Z,99569.69
2018-09-29T18:34:09.525Z,99561.67
2018-09-29T18:36:36.798Z,99566.78
2018-09-29T18:39:06.410Z,99566.16
2018-09-29T18:41:33.820Z,99566.55
2018-09-29T18:44:01.206Z,99572.48
2018-09-29T18:46:28.383Z,99566.28
2018-09-29T18:48:55.630Z,99565.48
2018-09-29T18:51:22.915Z,99569.99
2018-09-29T18:53:50.100Z,99570.53
2018-09-29T18:56:17.283Z,99570.33
2018-09-29T18:58:44.521Z,99568.99
2018-09-29T19:01:11.730Z,99577.34
2018-09-29T19:03:39.018Z,99568.83
2018-09-29T19:06:06.330Z,99567.19
2018-09-29T19:08:33.545Z,99564.75
2018-09-29T19:11:00.751Z,99565.32
2018-09-29T19:13:27.985Z,99558.20
2018-09-29T19:15:55.210Z,99561.58
2018-09-29T19:18:22.469Z,99556.77
2018-09-29T19:20:49.629Z,99564.94
2018-09-29T19:23:16.922Z,99564.19
2018-09-29T19:25:44.599Z,99567.13
2018-09-29T19:28:11.889Z,99560.13
2018-09-29T19:30:39.084Z,99559.15
2018-09-29T19:33:06.271Z,99561.28
2018-09-29T19:35:33.571Z,99552.19
2018-09-29T19:38:04.015Z,99560.95
2018-09-29T19:40:31.248Z,99553.34
2018-09-29T19:42:58.597Z,99555.74
2018-09-29T19:45:26.207Z,99550.91
2018-09-29T19:47:53.468Z,99552.36
2018-09-29T19:50:20.902Z,99561.03
2018-09-29T19:52:48.260Z,99561.86
2018-09-29T19:55:15.574Z,99562.33
2018-09-29T19:57:42.866Z,99562.27
2018-09-29T20:00:10.066Z,99559.13
2018-09-29T20:02:37.319Z,99548.88
2018-09-29T20:05:04.931Z,99553.61
2018-09-29T20:07:33.147Z,99550.14
2018-09-29T20:10:00.608Z,99556.30
2018-09-29T20:12:27.823Z,99555.12
2018-09-29T20:14:55.664Z,99551.47
2018-09-29T20:17:22.998Z,99555.55
2018-09-29T20:19:50.266Z,99555.23
2018-09-29T20:22:18.621Z,99557.00
2018-09-29T20:24:45.930Z,99550.52
2018-09-29T20:27:13.222Z,99547.88
2018-09-29T20:29:40.465Z,99541.03
2018-09-29T20:32:07.658Z,99538.47
2018-09-29T20:34:35.012Z,99544.59
2018-09-29T20:37:02.974Z,99549.69
2018-09-29T20:39:31.316Z,99540.87
2018-09-29T20:41:58.553Z,99537.23
2018-09-29T20:44:25.770Z,99531.22
2018-09-29T20:46:52.940Z,99532.05
2018-09-29T20:49:20.181Z,99544.63
2018-09-29T20:51:47.444Z,99541.13
2018-09-29T20:54:14.662Z,99545.81
2018-09-29T20:56:41.927Z,99537.48
2018-09-29T20:59:09.167Z,99536.03
2018-09-29T21:04:12.537Z,99526.36
2018-09-29T21:06:39.973Z,99519.95
2018-09-29T21:09:07.709Z,99529.02
2018-09-29T21:11:35.196Z,99529.52
2018-09-29T21:14:02.491Z,99523.69
2018-09-29T21:16:29.815Z,99530.69
2018-09-29T21:18:56.982Z,99526.45
2018-09-29T21:21:24.246Z,99516.67
2018-09-29T21:23:51.419Z,99523.30
2018-09-29T21:26:18.853Z,99520.11
2018-09-29T21:28:46.192Z,99526.89
2018-09-29T21:31:13.338Z,99521.55
2018-09-29T21:33:40.611Z,99517.84
2018-09-29T21:36:07.783Z,99518.38
2018-09-29T21:38:35.056Z,99514.14
2018-09-29T21:41:02.785Z,99513.61
2018-09-29T21:43:30.110Z,99511.23
2018-09-29T21:45:57.319Z,99513.34
2018-09-29T21:48:24.560Z,99504.58
2018-09-29T21:50:51.810Z,99505.89
2018-09-29T21:53:19.354Z,99506.47
2018-09-29T21:55:46.602Z,99513.45
2018-09-29T21:58:14.071Z,99508.44
2018-09-29T22:00:42.716Z,99504.70
2018-09-29T22:03:10.919Z,99505.73
2018-09-29T22:05:38.312Z,99502.41
2018-09-29T22:08:05.885Z,99499.80
2018-09-29T22:10:33.234Z,99499.84
2018-09-29T22:13:00.442Z,99492.06
2018-09-29T22:15:27.650Z,99487.84
2018-09-29T22:17:54.775Z,99483.94
2018-09-29T22:20:21.991Z,99479.02
2018-09-29T22:22:49.180Z,99478.70
2018-09-29T22:25:16.326Z,99480.97
2018-09-29T22:27:44.602Z,99480.91
2018-09-29T22:30:11.766Z,99474.21
2018-09-29T22:32:38.979Z,99471.17
2018-09-29T22:35:06.192Z,99468.84
2018-09-29T22:37:33.501Z,99466.21
2018-09-29T22:40:00.847Z,99465.09
2018-09-29T22:42:28.014Z,99463.62
2018-09-29T22:44:55.211Z,99454.66
2018-09-29T22:47:22.469Z,99458.51
2018-09-29T22:49:49.633Z,99454.31
2018-09-29T22:52:16.986Z,99453.34
2018-09-29T22:54:44.379Z,99452.93
2018-09-29T22:57:11.733Z,99450.05
2018-09-29T22:59:39.055Z,99442.59
2018-09-29T23:02:06.750Z,99440.92
2018-09-29T23:04:33.943Z,99439.11
2018-09-29T23:07:01.260Z,99434.04
2018-09-29T23:09:28.466Z,99420.05
2018-09-29T23:11:55.662Z,99420.36
2018-09-29T23:14:22.958Z,99423.23
2018-09-29T23:16:50.124Z,99419.00
2018-09-29T23:19:17.320Z,99413.27
2018-09-29T23:21:44.551Z,99413.87
2018-09-29T23:24:11.761Z,99408.22
2018-09-29T23:26:38.923Z,99333.81
2018-09-29T23:29:06.224Z,99407.53
2018-09-29T23:31:33.431Z,99405.34
2018-09-29T23:34:00.626Z,99399.37
2018-09-29T23:36:27.834Z,99395.74
2018-09-29T23:38:55.085Z,99393.47
2018-09-29T23:41:22.269Z,99390.73
2018-09-29T23:43:49.511Z,99390.72
2018-09-29T23:46:16.717Z,99387.82
2018-09-29T23:48:43.933Z,99387.05
2018-09-29T23:51:11.121Z,99381.09
2018-09-29T23:53:38.322Z,99383.49
2018-09-29T23:56:05.574Z,99389.51
2018-09-29T23:58:32.778Z,99386.55
